sensor_id;sensor_type;location;lat;lon;timestamp;P1;durP1;ratioP1;P2;durP2;ratioP2
83115;SDS011;72996;40.206;44.498;2023-11-21T00:01:36;6.97;;;3.42;;
83115;SDS011;72996;40.206;44.498;2023-11-21T00:04:02;7.05;;;3.45;;
83115;SDS011;72996;40.206;44.498;2023-11-21T00:06:27;7.53;;;3.53;;
83115;SDS011;72996;40.206;44.498;2023-11-21T00:08:55;7.38;;;3.75;;
83115;SDS011;72996;40.206;44.498;2023-11-21T00:11:20;6.63;;;3.15;;
83115;SDS011;72996;40.206;44.498;2023-11-21T00:13:46;7.30;;;3.45;;
83115;SDS011;72996;40.206;44.498;2023-11-21T00:16:12;7.40;;;3.53;;
83115;SDS011;72996;40.206;44.498;2023-11-21T00:18:37;7.30;;;3.60;;
83115;SDS011;72996;40.206;44.498;2023-11-21T00:21:03;10.25;;;4.38;;
83115;SDS011;72996;40.206;44.498;2023-11-21T00:23:28;6.72;;;3.25;;
83115;SDS011;72996;40.206;44.498;2023-11-21T00:25:54;10.40;;;5.90;;
83115;SDS011;72996;40.206;44.498;2023-11-21T00:28:20;9.02;;;4.30;;
83115;SDS011;72996;40.206;44.498;2023-11-21T00:30:45;11.40;;;4.60;;
83115;SDS011;72996;40.206;44.498;2023-11-21T00:33:11;10.85;;;4.15;;
83115;SDS011;72996;40.206;44.498;2023-11-21T00:35:36;8.48;;;4.22;;
83115;SDS011;72996;40.206;44.498;2023-11-21T00:38:02;10.65;;;4.25;;
83115;SDS011;72996;40.206;44.498;2023-11-21T00:40:28;7.75;;;3.25;;
83115;SDS011;72996;40.206;44.498;2023-11-21T00:42:54;6.93;;;3.42;;
83115;SDS011;72996;40.206;44.498;2023-11-21T00:45:21;8.13;;;4.10;;
83115;SDS011;72996;40.206;44.498;2023-11-21T00:47:46;8.32;;;3.50;;
83115;SDS011;72996;40.206;44.498;2023-11-21T00:50:12;8.55;;;3.63;;
83115;SDS011;72996;40.206;44.498;2023-11-21T00:52:38;8.27;;;3.50;;
83115;SDS011;72996;40.206;44.498;2023-11-21T00:55:06;9.23;;;4.20;;
83115;SDS011;72996;40.206;44.498;2023-11-21T00:57:33;7.97;;;3.92;;
83115;SDS011;72996;40.206;44.498;2023-11-21T01:00:00;9.95;;;4.22;;
83115;SDS011;72996;40.206;44.498;2023-11-21T01:02:25;10.07;;;4.10;;
83115;SDS011;72996;40.206;44.498;2023-11-21T01:04:51;10.60;;;5.00;;
83115;SDS011;72996;40.206;44.498;2023-11-21T01:07:17;9.35;;;4.28;;
83115;SDS011;72996;40.206;44.498;2023-11-21T01:09:45;13.40;;;6.13;;
83115;SDS011;72996;40.206;44.498;2023-11-21T01:12:11;11.07;;;4.93;;
83115;SDS011;72996;40.206;44.498;2023-11-21T01:14:37;11.82;;;5.78;;
83115;SDS011;72996;40.206;44.498;2023-11-21T01:17:02;14.43;;;5.97;;
83115;SDS011;72996;40.206;44.498;2023-11-21T01:19:29;13.98;;;5.93;;
83115;SDS011;72996;40.206;44.498;2023-11-21T01:21:55;12.77;;;5.88;;
83115;SDS011;72996;40.206;44.498;2023-11-21T01:24:23;10.95;;;4.70;;
83115;SDS011;72996;40.206;44.498;2023-11-21T01:26:48;11.65;;;5.20;;
83115;SDS011;72996;40.206;44.498;2023-11-21T01:29:14;11.98;;;5.47;;
83115;SDS011;72996;40.206;44.498;2023-11-21T01:31:40;10.02;;;4.60;;
83115;SDS011;72996;40.206;44.498;2023-11-21T01:34:06;10.13;;;3.83;;
83115;SDS011;72996;40.206;44.498;2023-11-21T01:36:32;7.45;;;3.70;;
83115;SDS011;72996;40.206;44.498;2023-11-21T01:38:59;7.05;;;3.20;;
83115;SDS011;72996;40.206;44.498;2023-11-21T01:41:26;7.18;;;3.67;;
83115;SDS011;72996;40.206;44.498;2023-11-21T01:43:52;8.80;;;3.75;;
83115;SDS011;72996;40.206;44.498;2023-11-21T01:46:19;6.68;;;3.20;;
83115;SDS011;72996;40.206;44.498;2023-11-21T01:48:45;8.75;;;3.03;;
83115;SDS011;72996;40.206;44.498;2023-11-21T01:51:13;6.82;;;3.08;;
83115;SDS011;72996;40.206;44.498;2023-11-21T01:53:39;7.88;;;3.25;;
83115;SDS011;72996;40.206;44.498;2023-11-21T01:56:05;6.47;;;3.55;;
83115;SDS011;72996;40.206;44.498;2023-11-21T01:58:35;7.45;;;4.00;;
83115;SDS011;72996;40.206;44.498;2023-11-21T02:01:00;7.78;;;3.83;;
83115;SDS011;72996;40.206;44.498;2023-11-21T02:03:26;8.00;;;5.03;;
83115;SDS011;72996;40.206;44.498;2023-11-21T02:05:52;7.50;;;4.63;;
83115;SDS011;72996;40.206;44.498;2023-11-21T02:08:19;8.73;;;6.80;;
83115;SDS011;72996;40.206;44.498;2023-11-21T02:10:45;6.95;;;3.92;;
83115;SDS011;72996;40.206;44.498;2023-11-21T02:13:11;6.18;;;3.17;;
83115;SDS011;72996;40.206;44.498;2023-11-21T02:15:37;6.70;;;3.17;;
83115;SDS011;72996;40.206;44.498;2023-11-21T02:18:03;6.30;;;3.50;;
83115;SDS011;72996;40.206;44.498;2023-11-21T02:20:31;5.03;;;2.53;;
83115;SDS011;72996;40.206;44.498;2023-11-21T02:23:00;5.30;;;2.50;;
83115;SDS011;72996;40.206;44.498;2023-11-21T02:25:26;5.43;;;2.33;;
83115;SDS011;72996;40.206;44.498;2023-11-21T02:27:58;5.00;;;2.25;;
83115;SDS011;72996;40.206;44.498;2023-11-21T02:30:26;5.88;;;2.75;;
83115;SDS011;72996;40.206;44.498;2023-11-21T02:32:58;4.65;;;2.42;;
83115;SDS011;72996;40.206;44.498;2023-11-21T02:35:24;4.57;;;2.15;;
83115;SDS011;72996;40.206;44.498;2023-11-21T02:37:55;5.32;;;2.10;;
83115;SDS011;72996;40.206;44.498;2023-11-21T02:40:21;5.95;;;2.40;;
83115;SDS011;72996;40.206;44.498;2023-11-21T02:42:46;4.85;;;2.33;;
83115;SDS011;72996;40.206;44.498;2023-11-21T02:45:15;5.10;;;2.20;;
83115;SDS011;72996;40.206;44.498;2023-11-21T02:47:42;4.72;;;2.20;;
83115;SDS011;72996;40.206;44.498;2023-11-21T02:50:08;13.27;;;4.00;;
83115;SDS011;72996;40.206;44.498;2023-11-21T02:52:34;7.07;;;2.78;;
83115;SDS011;72996;40.206;44.498;2023-11-21T02:55:03;5.07;;;2.17;;
83115;SDS011;72996;40.206;44.498;2023-11-21T02:57:29;5.90;;;2.10;;
83115;SDS011;72996;40.206;44.498;2023-11-21T02:59:54;5.45;;;2.30;;
83115;SDS011;72996;40.206;44.498;2023-11-21T03:02:20;4.45;;;2.13;;
83115;SDS011;72996;40.206;44.498;2023-11-21T03:04:46;4.50;;;2.22;;
83115;SDS011;72996;40.206;44.498;2023-11-21T03:09:39;6.97;;;2.70;;
83115;SDS011;72996;40.206;44.498;2023-11-21T03:12:05;6.13;;;2.83;;
83115;SDS011;72996;40.206;44.498;2023-11-21T03:14:31;7.05;;;3.08;;
83115;SDS011;72996;40.206;44.498;2023-11-21T03:16:56;5.50;;;2.50;;
83115;SDS011;72996;40.206;44.498;2023-11-21T03:19:22;6.25;;;2.90;;
83115;SDS011;72996;40.206;44.498;2023-11-21T03:21:48;7.70;;;3.00;;
83115;SDS011;72996;40.206;44.498;2023-11-21T03:24:14;6.65;;;3.13;;
83115;SDS011;72996;40.206;44.498;2023-11-21T03:26:45;5.82;;;2.95;;
83115;SDS011;72996;40.206;44.498;2023-11-21T03:29:11;5.57;;;2.38;;
83115;SDS011;72996;40.206;44.498;2023-11-21T03:31:37;6.50;;;3.05;;
83115;SDS011;72996;40.206;44.498;2023-11-21T03:34:03;7.03;;;3.20;;
83115;SDS011;72996;40.206;44.498;2023-11-21T03:36:28;8.30;;;3.30;;
83115;SDS011;72996;40.206;44.498;2023-11-21T03:38:54;7.50;;;3.33;;
83115;SDS011;72996;40.206;44.498;2023-11-21T03:41:20;7.03;;;3.20;;
83115;SDS011;72996;40.206;44.498;2023-11-21T03:43:46;8.05;;;3.70;;
83115;SDS011;72996;40.206;44.498;2023-11-21T03:46:11;8.68;;;3.20;;
83115;SDS011;72996;40.206;44.498;2023-11-21T03:48:37;8.50;;;3.70;;
83115;SDS011;72996;40.206;44.498;2023-11-21T03:51:03;6.82;;;3.20;;
83115;SDS011;72996;40.206;44.498;2023-11-21T03:53:29;10.05;;;3.70;;
83115;SDS011;72996;40.206;44.498;2023-11-21T03:55:55;7.57;;;3.20;;
83115;SDS011;72996;40.206;44.498;2023-11-21T03:58:20;8.63;;;3.72;;
83115;SDS011;72996;40.206;44.498;2023-11-21T04:00:46;7.85;;;3.05;;
83115;SDS011;72996;40.206;44.498;2023-11-21T04:03:14;7.00;;;3.13;;
83115;SDS011;72996;40.206;44.498;2023-11-21T04:05:40;5.95;;;2.58;;
83115;SDS011;72996;40.206;44.498;2023-11-21T04:08:06;6.22;;;2.67;;
83115;SDS011;72996;40.206;44.498;2023-11-21T04:10:32;7.13;;;2.80;;
83115;SDS011;72996;40.206;44.498;2023-11-21T04:12:57;7.13;;;3.22;;
83115;SDS011;72996;40.206;44.498;2023-11-21T04:15:23;6.80;;;3.00;;
83115;SDS011;72996;40.206;44.498;2023-11-21T04:17:49;21.05;;;4.63;;
83115;SDS011;72996;40.206;44.498;2023-11-21T04:20:14;10.60;;;5.30;;
83115;SDS011;72996;40.206;44.498;2023-11-21T04:22:40;11.07;;;4.75;;
83115;SDS011;72996;40.206;44.498;2023-11-21T04:25:09;12.25;;;4.97;;
83115;SDS011;72996;40.206;44.498;2023-11-21T04:27:41;11.90;;;5.13;;
83115;SDS011;72996;40.206;44.498;2023-11-21T04:30:10;8.88;;;3.88;;
83115;SDS011;72996;40.206;44.498;2023-11-21T04:32:39;9.27;;;3.38;;
83115;SDS011;72996;40.206;44.498;2023-11-21T04:35:05;5.38;;;2.60;;
83115;SDS011;72996;40.206;44.498;2023-11-21T04:37:31;6.07;;;2.78;;
83115;SDS011;72996;40.206;44.498;2023-11-21T04:39:56;5.82;;;2.58;;
83115;SDS011;72996;40.206;44.498;2023-11-21T04:42:22;6.20;;;2.88;;
83115;SDS011;72996;40.206;44.498;2023-11-21T04:44:48;6.93;;;2.83;;
83115;SDS011;72996;40.206;44.498;2023-11-21T04:47:15;7.63;;;2.83;;
83115;SDS011;72996;40.206;44.498;2023-11-21T04:49:41;5.90;;;2.40;;
83115;SDS011;72996;40.206;44.498;2023-11-21T04:54:35;7.72;;;2.47;;
83115;SDS011;72996;40.206;44.498;2023-11-21T04:57:01;5.65;;;2.60;;
83115;SDS011;72996;40.206;44.498;2023-11-21T04:59:26;7.05;;;2.85;;
83115;SDS011;72996;40.206;44.498;2023-11-21T05:01:52;6.18;;;2.40;;
83115;SDS011;72996;40.206;44.498;2023-11-21T05:04:19;6.60;;;2.92;;
83115;SDS011;72996;40.206;44.498;2023-11-21T05:06:46;4.28;;;2.20;;
83115;SDS011;72996;40.206;44.498;2023-11-21T05:09:13;9.38;;;3.03;;
83115;SDS011;72996;40.206;44.498;2023-11-21T05:11:38;8.07;;;3.15;;
83115;SDS011;72996;40.206;44.498;2023-11-21T05:14:06;5.82;;;2.45;;
83115;SDS011;72996;40.206;44.498;2023-11-21T05:16:31;6.35;;;2.80;;
83115;SDS011;72996;40.206;44.498;2023-11-21T05:18:57;7.00;;;2.90;;
83115;SDS011;72996;40.206;44.498;2023-11-21T05:21:25;7.68;;;3.58;;
83115;SDS011;72996;40.206;44.498;2023-11-21T05:23:56;10.25;;;4.13;;
83115;SDS011;72996;40.206;44.498;2023-11-21T05:26:22;6.82;;;3.88;;
83115;SDS011;72996;40.206;44.498;2023-11-21T05:28:47;6.63;;;2.75;;
83115;SDS011;72996;40.206;44.498;2023-11-21T05:31:13;6.95;;;2.90;;
83115;SDS011;72996;40.206;44.498;2023-11-21T05:33:39;6.85;;;3.20;;
83115;SDS011;72996;40.206;44.498;2023-11-21T05:36:04;7.28;;;2.75;;
83115;SDS011;72996;40.206;44.498;2023-11-21T05:38:33;5.95;;;2.95;;
83115;SDS011;72996;40.206;44.498;2023-11-21T05:40:58;5.88;;;2.83;;
83115;SDS011;72996;40.206;44.498;2023-11-21T05:43:24;5.47;;;2.40;;
83115;SDS011;72996;40.206;44.498;2023-11-21T05:45:50;6.07;;;2.50;;
83115;SDS011;72996;40.206;44.498;2023-11-21T05:48:15;6.82;;;4.40;;
83115;SDS011;72996;40.206;44.498;2023-11-21T05:50:41;6.45;;;3.03;;
83115;SDS011;72996;40.206;44.498;2023-11-21T05:53:06;7.80;;;3.55;;
83115;SDS011;72996;40.206;44.498;2023-11-21T05:55:34;7.53;;;3.30;;
83115;SDS011;72996;40.206;44.498;2023-11-21T05:58:00;8.77;;;3.10;;
83115;SDS011;72996;40.206;44.498;2023-11-21T06:00:25;8.52;;;3.83;;
83115;SDS011;72996;40.206;44.498;2023-11-21T06:02:52;8.00;;;3.45;;
83115;SDS011;72996;40.206;44.498;2023-11-21T06:05:19;6.00;;;3.00;;
83115;SDS011;72996;40.206;44.498;2023-11-21T06:07:48;10.73;;;3.88;;
83115;SDS011;72996;40.206;44.498;2023-11-21T06:10:14;10.77;;;3.80;;
83115;SDS011;72996;40.206;44.498;2023-11-21T06:12:40;7.35;;;3.67;;
83115;SDS011;72996;40.206;44.498;2023-11-21T06:15:08;8.50;;;3.90;;
83115;SDS011;72996;40.206;44.498;2023-11-21T06:17:35;9.18;;;4.72;;
83115;SDS011;72996;40.206;44.498;2023-11-21T06:20:10;10.65;;;4.60;;
83115;SDS011;72996;40.206;44.498;2023-11-21T06:22:39;8.10;;;4.00;;
83115;SDS011;72996;40.206;44.498;2023-11-21T06:25:06;10.90;;;4.70;;
83115;SDS011;72996;40.206;44.498;2023-11-21T06:27:43;8.98;;;4.05;;
83115;SDS011;72996;40.206;44.498;2023-11-21T06:30:11;8.73;;;4.63;;
83115;SDS011;72996;40.206;44.498;2023-11-21T06:32:39;10.27;;;4.15;;
83115;SDS011;72996;40.206;44.498;2023-11-21T06:35:05;10.85;;;5.20;;
83115;SDS011;72996;40.206;44.498;2023-11-21T06:37:32;9.27;;;4.35;;
83115;SDS011;72996;40.206;44.498;2023-11-21T06:39:58;9.85;;;4.32;;
83115;SDS011;72996;40.206;44.498;2023-11-21T06:42:25;14.35;;;5.47;;
83115;SDS011;72996;40.206;44.498;2023-11-21T06:44:51;14.00;;;5.22;;
83115;SDS011;72996;40.206;44.498;2023-11-21T06:47:17;9.75;;;4.32;;
83115;SDS011;72996;40.206;44.498;2023-11-21T06:49:45;11.23;;;5.07;;
83115;SDS011;72996;40.206;44.498;2023-11-21T06:52:13;8.45;;;4.35;;
83115;SDS011;72996;40.206;44.498;2023-11-21T06:54:39;11.65;;;5.47;;
83115;SDS011;72996;40.206;44.498;2023-11-21T06:57:04;16.17;;;9.00;;
83115;SDS011;72996;40.206;44.498;2023-11-21T06:59:30;9.35;;;4.28;;
83115;SDS011;72996;40.206;44.498;2023-11-21T07:01:56;10.43;;;4.30;;
83115;SDS011;72996;40.206;44.498;2023-11-21T07:04:22;11.60;;;4.20;;
83115;SDS011;72996;40.206;44.498;2023-11-21T07:06:47;10.27;;;4.25;;
83115;SDS011;72996;40.206;44.498;2023-11-21T07:09:13;8.65;;;4.25;;
83115;SDS011;72996;40.206;44.498;2023-11-21T07:11:39;10.10;;;5.13;;
83115;SDS011;72996;40.206;44.498;2023-11-21T07:14:04;14.02;;;4.78;;
83115;SDS011;72996;40.206;44.498;2023-11-21T07:16:38;9.20;;;4.30;;
83115;SDS011;72996;40.206;44.498;2023-11-21T07:19:04;11.32;;;4.55;;
83115;SDS011;72996;40.206;44.498;2023-11-21T07:21:33;9.73;;;4.30;;
83115;SDS011;72996;40.206;44.498;2023-11-21T07:24:02;9.07;;;5.00;;
83115;SDS011;72996;40.206;44.498;2023-11-21T07:26:29;11.45;;;5.35;;
83115;SDS011;72996;40.206;44.498;2023-11-21T07:28:55;11.68;;;5.25;;
83115;SDS011;72996;40.206;44.498;2023-11-21T07:31:22;11.10;;;4.28;;
83115;SDS011;72996;40.206;44.498;2023-11-21T07:33:49;12.02;;;4.55;;
83115;SDS011;72996;40.206;44.498;2023-11-21T07:36:15;10.23;;;5.35;;
83115;SDS011;72996;40.206;44.498;2023-11-21T07:38:43;16.33;;;6.07;;
83115;SDS011;72996;40.206;44.498;2023-11-21T07:41:09;11.95;;;5.47;;
83115;SDS011;72996;40.206;44.498;2023-11-21T07:43:36;11.98;;;5.45;;
83115;SDS011;72996;40.206;44.498;2023-11-21T07:46:02;12.85;;;5.35;;
83115;SDS011;72996;40.206;44.498;2023-11-21T07:48:31;12.32;;;4.93;;
83115;SDS011;72996;40.206;44.498;2023-11-21T07:50:58;11.80;;;5.88;;
83115;SDS011;72996;40.206;44.498;2023-11-21T07:53:27;10.00;;;5.00;;
83115;SDS011;72996;40.206;44.498;2023-11-21T07:55:58;8.13;;;3.85;;
83115;SDS011;72996;40.206;44.498;2023-11-21T07:58:35;17.85;;;6.05;;
83115;SDS011;72996;40.206;44.498;2023-11-21T08:01:05;9.10;;;4.50;;
83115;SDS011;72996;40.206;44.498;2023-11-21T08:03:30;12.88;;;6.18;;
83115;SDS011;72996;40.206;44.498;2023-11-21T08:05:56;12.02;;;5.32;;
83115;SDS011;72996;40.206;44.498;2023-11-21T08:08:23;15.43;;;5.75;;
83115;SDS011;72996;40.206;44.498;2023-11-21T08:10:48;9.50;;;3.88;;
83115;SDS011;72996;40.206;44.498;2023-11-21T08:13:29;11.68;;;4.60;;
83115;SDS011;72996;40.206;44.498;2023-11-21T08:15:58;7.32;;;4.00;;
83115;SDS011;72996;40.206;44.498;2023-11-21T08:18:30;8.00;;;3.50;;
83115;SDS011;72996;40.206;44.498;2023-11-21T08:20:56;9.35;;;4.20;;
83115;SDS011;72996;40.206;44.498;2023-11-21T08:23:22;9.50;;;4.20;;
83115;SDS011;72996;40.206;44.498;2023-11-21T08:25:51;7.38;;;3.75;;
83115;SDS011;72996;40.206;44.498;2023-11-21T08:28:18;13.65;;;6.07;;
83115;SDS011;72996;40.206;44.498;2023-11-21T08:30:44;9.95;;;3.92;;
83115;SDS011;72996;40.206;44.498;2023-11-21T08:33:09;11.93;;;3.75;;
83115;SDS011;72996;40.206;44.498;2023-11-21T08:35:37;13.80;;;4.13;;
83115;SDS011;72996;40.206;44.498;2023-11-21T08:38:03;9.15;;;3.40;;
83115;SDS011;72996;40.206;44.498;2023-11-21T08:40:29;7.05;;;3.10;;
83115;SDS011;72996;40.206;44.498;2023-11-21T08:42:55;6.22;;;2.78;;
83115;SDS011;72996;40.206;44.498;2023-11-21T08:45:21;7.68;;;2.50;;
83115;SDS011;72996;40.206;44.498;2023-11-21T08:47:47;6.28;;;2.60;;
83115;SDS011;72996;40.206;44.498;2023-11-21T08:50:13;7.38;;;3.17;;
83115;SDS011;72996;40.206;44.498;2023-11-21T08:52:40;5.90;;;1.70;;
83115;SDS011;72996;40.206;44.498;2023-11-21T08:55:06;5.22;;;2.00;;
83115;SDS011;72996;40.206;44.498;2023-11-21T08:57:37;5.45;;;1.80;;
83115;SDS011;72996;40.206;44.498;2023-11-21T09:00:05;3.60;;;1.60;;
83115;SDS011;72996;40.206;44.498;2023-11-21T09:02:42;3.55;;;1.80;;
83115;SDS011;72996;40.206;44.498;2023-11-21T09:05:09;5.43;;;1.75;;
83115;SDS011;72996;40.206;44.498;2023-11-21T09:07:39;9.48;;;3.13;;
83115;SDS011;72996;40.206;44.498;2023-11-21T09:10:06;3.15;;;1.50;;
83115;SDS011;72996;40.206;44.498;2023-11-21T09:12:34;5.22;;;1.90;;
83115;SDS011;72996;40.206;44.498;2023-11-21T09:15:04;6.22;;;1.70;;
83115;SDS011;72996;40.206;44.498;2023-11-21T09:17:31;4.95;;;1.60;;
83115;SDS011;72996;40.206;44.498;2023-11-21T09:19:59;5.97;;;1.70;;
83115;SDS011;72996;40.206;44.498;2023-11-21T09:22:25;5.50;;;1.52;;
83115;SDS011;72996;40.206;44.498;2023-11-21T09:24:51;7.13;;;1.90;;
83115;SDS011;72996;40.206;44.498;2023-11-21T09:27:17;4.07;;;1.52;;
83115;SDS011;72996;40.206;44.498;2023-11-21T09:29:42;4.47;;;2.15;;
83115;SDS011;72996;40.206;44.498;2023-11-21T09:32:08;7.25;;;2.05;;
83115;SDS011;72996;40.206;44.498;2023-11-21T09:34:37;5.22;;;1.80;;
83115;SDS011;72996;40.206;44.498;2023-11-21T09:37:06;7.68;;;4.72;;
83115;SDS011;72996;40.206;44.498;2023-11-21T09:39:32;8.15;;;3.05;;
83115;SDS011;72996;40.206;44.498;2023-11-21T09:42:04;7.15;;;2.58;;
83115;SDS011;72996;40.206;44.498;2023-11-21T09:44:50;6.93;;;1.90;;
83115;SDS011;72996;40.206;44.498;2023-11-21T09:47:24;5.43;;;2.20;;
83115;SDS011;72996;40.206;44.498;2023-11-21T09:49:49;3.95;;;1.50;;
83115;SDS011;72996;40.206;44.498;2023-11-21T09:52:24;9.90;;;2.50;;
83115;SDS011;72996;40.206;44.498;2023-11-21T09:54:52;4.57;;;1.80;;
83115;SDS011;72996;40.206;44.498;2023-11-21T09:57:25;2.95;;;1.48;;
83115;SDS011;72996;40.206;44.498;2023-11-21T09:59:53;5.35;;;2.20;;
83115;SDS011;72996;40.206;44.498;2023-11-21T10:02:25;4.45;;;1.70;;
83115;SDS011;72996;40.206;44.498;2023-11-21T10:04:55;4.75;;;1.98;;
83115;SDS011;72996;40.206;44.498;2023-11-21T10:07:21;4.00;;;1.90;;
83115;SDS011;72996;40.206;44.498;2023-11-21T10:09:48;5.45;;;1.90;;
83115;SDS011;72996;40.206;44.498;2023-11-21T10:12:17;4.88;;;1.77;;
83115;SDS011;72996;40.206;44.498;2023-11-21T10:14:45;6.00;;;2.58;;
83115;SDS011;72996;40.206;44.498;2023-11-21T10:17:14;3.13;;;1.58;;
83115;SDS011;72996;40.206;44.498;2023-11-21T10:19:41;6.55;;;2.55;;
83115;SDS011;72996;40.206;44.498;2023-11-21T10:22:08;5.57;;;1.90;;
83115;SDS011;72996;40.206;44.498;2023-11-21T10:24:34;2.67;;;1.40;;
83115;SDS011;72996;40.206;44.498;2023-11-21T10:27:04;6.80;;;3.38;;
83115;SDS011;72996;40.206;44.498;2023-11-21T10:29:29;4.18;;;1.80;;
83115;SDS011;72996;40.206;44.498;2023-11-21T10:31:55;6.13;;;2.00;;
83115;SDS011;72996;40.206;44.498;2023-11-21T10:34:23;4.15;;;2.20;;
83115;SDS011;72996;40.206;44.498;2023-11-21T10:36:49;7.55;;;2.25;;
83115;SDS011;72996;40.206;44.498;2023-11-21T10:39:18;6.30;;;1.70;;
83115;SDS011;72996;40.206;44.498;2023-11-21T10:41:45;5.32;;;1.98;;
83115;SDS011;72996;40.206;44.498;2023-11-21T10:44:14;4.63;;;1.65;;
83115;SDS011;72996;40.206;44.498;2023-11-21T10:46:46;5.68;;;2.15;;
83115;SDS011;72996;40.206;44.498;2023-11-21T10:49:21;4.90;;;2.05;;
83115;SDS011;72996;40.206;44.498;2023-11-21T10:51:50;5.85;;;3.10;;
83115;SDS011;72996;40.206;44.498;2023-11-21T10:54:21;7.25;;;4.50;;
83115;SDS011;72996;40.206;44.498;2023-11-21T10:56:49;8.02;;;2.63;;
83115;SDS011;72996;40.206;44.498;2023-11-21T10:59:18;8.57;;;5.03;;
83115;SDS011;72996;40.206;44.498;2023-11-21T11:01:46;10.32;;;3.83;;
83115;SDS011;72996;40.206;44.498;2023-11-21T11:04:16;5.43;;;2.40;;
83115;SDS011;72996;40.206;44.498;2023-11-21T11:06:44;10.27;;;3.72;;
83115;SDS011;72996;40.206;44.498;2023-11-21T11:09:15;11.15;;;4.63;;
83115;SDS011;72996;40.206;44.498;2023-11-21T11:11:42;12.05;;;4.32;;
83115;SDS011;72996;40.206;44.498;2023-11-21T11:14:11;6.57;;;2.13;;
83115;SDS011;72996;40.206;44.498;2023-11-21T11:16:41;5.85;;;2.20;;
83115;SDS011;72996;40.206;44.498;2023-11-21T11:19:08;8.05;;;3.13;;
83115;SDS011;72996;40.206;44.498;2023-11-21T11:27:06;13.15;;;4.70;;
83115;SDS011;72996;40.206;44.498;2023-11-21T11:30:04;12.18;;;3.55;;
83115;SDS011;72996;40.206;44.498;2023-11-21T11:38:22;12.13;;;7.47;;
83115;SDS011;72996;40.206;44.498;2023-11-21T11:40:52;6.22;;;3.28;;
83115;SDS011;72996;40.206;44.498;2023-11-21T11:43:26;6.43;;;3.85;;
83115;SDS011;72996;40.206;44.498;2023-11-21T11:45:55;9.93;;;4.20;;
83115;SDS011;72996;40.206;44.498;2023-11-21T11:48:21;4.20;;;1.92;;
83115;SDS011;72996;40.206;44.498;2023-11-21T11:53:46;6.90;;;2.75;;
83115;SDS011;72996;40.206;44.498;2023-11-21T11:56:23;7.53;;;3.10;;
83115;SDS011;72996;40.206;44.498;2023-11-21T11:58:55;6.60;;;3.00;;
83115;SDS011;72996;40.206;44.498;2023-11-21T12:01:24;3.67;;;1.88;;
83115;SDS011;72996;40.206;44.498;2023-11-21T12:06:50;7.63;;;3.97;;
83115;SDS011;72996;40.206;44.498;2023-11-21T12:11:46;5.20;;;1.98;;
83115;SDS011;72996;40.206;44.498;2023-11-21T12:14:13;5.10;;;2.22;;
83115;SDS011;72996;40.206;44.498;2023-11-21T12:16:40;4.57;;;2.10;;
83115;SDS011;72996;40.206;44.498;2023-11-21T12:19:06;5.65;;;2.05;;
83115;SDS011;72996;40.206;44.498;2023-11-21T12:21:32;11.23;;;2.30;;
83115;SDS011;72996;40.206;44.498;2023-11-21T12:23:59;5.90;;;2.00;;
83115;SDS011;72996;40.206;44.498;2023-11-21T12:26:25;8.50;;;2.22;;
83115;SDS011;72996;40.206;44.498;2023-11-21T12:28:54;6.47;;;1.98;;
83115;SDS011;72996;40.206;44.498;2023-11-21T12:31:22;4.18;;;1.80;;
83115;SDS011;72996;40.206;44.498;2023-11-21T12:33:48;5.40;;;2.00;;
83115;SDS011;72996;40.206;44.498;2023-11-21T12:36:15;8.15;;;2.58;;
83115;SDS011;72996;40.206;44.498;2023-11-21T12:38:41;7.22;;;3.22;;
83115;SDS011;72996;40.206;44.498;2023-11-21T12:41:07;6.00;;;2.38;;
83115;SDS011;72996;40.206;44.498;2023-11-21T12:43:33;9.32;;;2.70;;
83115;SDS011;72996;40.206;44.498;2023-11-21T12:46:09;12.48;;;3.75;;
83115;SDS011;72996;40.206;44.498;2023-11-21T12:48:37;7.43;;;2.38;;
83115;SDS011;72996;40.206;44.498;2023-11-21T12:51:07;8.10;;;2.30;;
83115;SDS011;72996;40.206;44.498;2023-11-21T12:53:34;4.47;;;2.20;;
83115;SDS011;72996;40.206;44.498;2023-11-21T12:56:06;4.75;;;1.88;;
83115;SDS011;72996;40.206;44.498;2023-11-21T12:58:36;5.35;;;2.40;;
83115;SDS011;72996;40.206;44.498;2023-11-21T13:01:04;5.45;;;2.15;;
83115;SDS011;72996;40.206;44.498;2023-11-21T13:03:30;5.03;;;2.05;;
83115;SDS011;72996;40.206;44.498;2023-11-21T13:05:57;6.65;;;2.25;;
83115;SDS011;72996;40.206;44.498;2023-11-21T13:08:24;15.30;;;4.88;;
83115;SDS011;72996;40.206;44.498;2023-11-21T13:10:52;7.88;;;3.33;;
83115;SDS011;72996;40.206;44.498;2023-11-21T13:13:22;5.57;;;2.60;;
83115;SDS011;72996;40.206;44.498;2023-11-21T13:15:55;8.30;;;2.83;;
83115;SDS011;72996;40.206;44.498;2023-11-21T13:18:22;10.50;;;5.22;;
83115;SDS011;72996;40.206;44.498;2023-11-21T13:20:49;9.05;;;4.00;;
83115;SDS011;72996;40.206;44.498;2023-11-21T13:23:15;7.65;;;3.40;;
83115;SDS011;72996;40.206;44.498;2023-11-21T13:25:44;9.40;;;3.45;;
83115;SDS011;72996;40.206;44.498;2023-11-21T13:28:13;7.18;;;3.15;;
83115;SDS011;72996;40.206;44.498;2023-11-21T13:30:47;6.75;;;2.30;;
83115;SDS011;72996;40.206;44.498;2023-11-21T13:33:14;10.38;;;6.75;;
83115;SDS011;72996;40.206;44.498;2023-11-21T13:35:52;6.07;;;3.15;;
83115;SDS011;72996;40.206;44.498;2023-11-21T13:38:18;7.78;;;2.67;;
83115;SDS011;72996;40.206;44.498;2023-11-21T13:40:48;7.60;;;2.50;;
83115;SDS011;72996;40.206;44.498;2023-11-21T13:43:18;7.05;;;2.25;;
83115;SDS011;72996;40.206;44.498;2023-11-21T13:48:12;6.80;;;2.65;;
83115;SDS011;72996;40.206;44.498;2023-11-21T13:50:50;10.05;;;4.03;;
83115;SDS011;72996;40.206;44.498;2023-11-21T13:53:33;8.77;;;3.60;;
83115;SDS011;72996;40.206;44.498;2023-11-21T13:56:02;6.05;;;3.22;;
83115;SDS011;72996;40.206;44.498;2023-11-21T13:58:28;6.68;;;2.90;;
83115;SDS011;72996;40.206;44.498;2023-11-21T14:01:13;8.32;;;3.00;;
83115;SDS011;72996;40.206;44.498;2023-11-21T14:03:54;5.50;;;2.20;;
83115;SDS011;72996;40.206;44.498;2023-11-21T14:06:26;4.85;;;2.47;;
83115;SDS011;72996;40.206;44.498;2023-11-21T14:08:59;9.40;;;2.72;;
83115;SDS011;72996;40.206;44.498;2023-11-21T14:11:30;6.47;;;2.85;;
83115;SDS011;72996;40.206;44.498;2023-11-21T14:13:55;7.38;;;2.72;;
83115;SDS011;72996;40.206;44.498;2023-11-21T14:16:21;20.27;;;7.88;;
83115;SDS011;72996;40.206;44.498;2023-11-21T14:18:47;47.17;;;16.63;;
83115;SDS011;72996;40.206;44.498;2023-11-21T14:21:26;49.88;;;18.88;;
83115;SDS011;72996;40.206;44.498;2023-11-21T14:23:52;14.82;;;5.45;;
83115;SDS011;72996;40.206;44.498;2023-11-21T14:26:20;8.50;;;3.42;;
83115;SDS011;72996;40.206;44.498;2023-11-21T14:28:46;9.90;;;3.55;;
83115;SDS011;72996;40.206;44.498;2023-11-21T14:33:42;7.63;;;3.47;;
83115;SDS011;72996;40.206;44.498;2023-11-21T14:36:09;8.30;;;3.92;;
83115;SDS011;72996;40.206;44.498;2023-11-21T14:38:38;7.40;;;2.67;;
83115;SDS011;72996;40.206;44.498;2023-11-21T14:41:05;8.07;;;3.88;;
83115;SDS011;72996;40.206;44.498;2023-11-21T14:43:33;7.22;;;3.30;;
83115;SDS011;72996;40.206;44.498;2023-11-21T14:46:01;7.05;;;2.90;;
83115;SDS011;72996;40.206;44.498;2023-11-21T14:51:10;8.43;;;4.13;;
83115;SDS011;72996;40.206;44.498;2023-11-21T14:53:56;6.03;;;3.13;;
83115;SDS011;72996;40.206;44.498;2023-11-21T14:56:31;7.40;;;3.78;;
83115;SDS011;72996;40.206;44.498;2023-11-21T14:58:59;10.32;;;5.47;;
83115;SDS011;72996;40.206;44.498;2023-11-21T15:01:39;7.88;;;4.13;;
83115;SDS011;72996;40.206;44.498;2023-11-21T15:04:10;10.18;;;3.95;;
83115;SDS011;72996;40.206;44.498;2023-11-21T15:06:46;6.85;;;2.88;;